sensor_id;sensor_type;location;lat;lon;timestamp;P1;durP1;ratioP1;P2;durP2;ratioP2
28311;SDS011;15572;48.810;9.148;2023-08-12T00:04:45;6.55;;;5.57;;
28311;SDS011;15572;48.810;9.148;2023-08-12T00:09:41;7.65;;;5.72;;
28311;SDS011;15572;48.810;9.148;2023-08-12T00:14:38;6.53;;;5.63;;
28311;SDS011;15572;48.810;9.148;2023-08-12T00:19:35;8.30;;;5.65;;
28311;SDS011;15572;48.810;9.148;2023-08-12T00:24:32;9.27;;;5.30;;
28311;SDS011;15572;48.810;9.148;2023-08-12T00:29:28;7.72;;;5.63;;
28311;SDS011;15572;48.810;9.148;2023-08-12T00:34:25;6.45;;;5.72;;
28311;SDS011;15572;48.810;9.148;2023-08-12T00:39:23;8.05;;;5.18;;
28311;SDS011;15572;48.810;9.148;2023-08-12T00:44:19;9.00;;;5.63;;
28311;SDS011;15572;48.810;9.148;2023-08-12T00:49:16;6.40;;;5.28;;
28311;SDS011;15572;48.810;9.148;2023-08-12T00:54:13;9.63;;;6.22;;
28311;SDS011;15572;48.810;9.148;2023-08-12T00:59:12;6.53;;;5.47;;
28311;SDS011;15572;48.810;9.148;2023-08-12T01:04:09;7.50;;;6.07;;
28311;SDS011;15572;48.810;9.148;2023-08-12T01:09:06;9.57;;;6.18;;
28311;SDS011;15572;48.810;9.148;2023-08-12T01:14:05;10.15;;;5.90;;
28311;SDS011;15572;48.810;9.148;2023-08-12T01:19:06;7.75;;;5.95;;
28311;SDS011;15572;48.810;9.148;2023-08-12T01:24:08;7.10;;;6.20;;
28311;SDS011;15572;48.810;9.148;2023-08-12T01:29:05;11.63;;;6.20;;
28311;SDS011;15572;48.810;9.148;2023-08-12T01:34:02;8.07;;;5.88;;
28311;SDS011;15572;48.810;9.148;2023-08-12T01:39:09;6.65;;;5.90;;
28311;SDS011;15572;48.810;9.148;2023-08-12T01:44:07;7.07;;;5.78;;
28311;SDS011;15572;48.810;9.148;2023-08-12T01:49:04;9.30;;;5.45;;
28311;SDS011;15572;48.810;9.148;2023-08-12T01:54:00;6.55;;;5.70;;
28311;SDS011;15572;48.810;9.148;2023-08-12T01:58:58;8.10;;;5.82;;
28311;SDS011;15572;48.810;9.148;2023-08-12T02:03:54;9.27;;;6.45;;
28311;SDS011;15572;48.810;9.148;2023-08-12T02:08:51;7.10;;;6.20;;
28311;SDS011;15572;48.810;9.148;2023-08-12T02:13:47;8.73;;;6.25;;
28311;SDS011;15572;48.810;9.148;2023-08-12T02:18:45;7.25;;;5.70;;
28311;SDS011;15572;48.810;9.148;2023-08-12T02:23:42;7.50;;;6.40;;
28311;SDS011;15572;48.810;9.148;2023-08-12T02:28:39;8.43;;;6.13;;
28311;SDS011;15572;48.810;9.148;2023-08-12T02:33:35;7.32;;;6.47;;
28311;SDS011;15572;48.810;9.148;2023-08-12T02:38:33;7.25;;;6.45;;
28311;SDS011;15572;48.810;9.148;2023-08-12T02:43:30;9.65;;;6.53;;
28311;SDS011;15572;48.810;9.148;2023-08-12T02:48:26;7.45;;;6.47;;
28311;SDS011;15572;48.810;9.148;2023-08-12T02:53:23;8.25;;;6.18;;
28311;SDS011;15572;48.810;9.148;2023-08-12T02:58:20;8.70;;;6.10;;
28311;SDS011;15572;48.810;9.148;2023-08-12T03:03:17;6.22;;;5.63;;
28311;SDS011;15572;48.810;9.148;2023-08-12T03:08:14;6.50;;;5.80;;
28311;SDS011;15572;48.810;9.148;2023-08-12T03:13:10;7.38;;;6.38;;
28311;SDS011;15572;48.810;9.148;2023-08-12T03:18:08;8.13;;;6.03;;
28311;SDS011;15572;48.810;9.148;2023-08-12T03:23:05;7.68;;;6.15;;
28311;SDS011;15572;48.810;9.148;2023-08-12T03:28:01;6.47;;;5.82;;
28311;SDS011;15572;48.810;9.148;2023-08-12T03:32:58;8.43;;;6.10;;
28311;SDS011;15572;48.810;9.148;2023-08-12T03:37:56;8.30;;;5.95;;
28311;SDS011;15572;48.810;9.148;2023-08-12T03:42:52;8.05;;;6.32;;
28311;SDS011;15572;48.810;9.148;2023-08-12T03:47:49;6.60;;;5.82;;
28311;SDS011;15572;48.810;9.148;2023-08-12T03:52:45;8.52;;;6.70;;
28311;SDS011;15572;48.810;9.148;2023-08-12T03:57:43;9.20;;;6.50;;
28311;SDS011;15572;48.810;9.148;2023-08-12T04:02:40;8.25;;;6.38;;
28311;SDS011;15572;48.810;9.148;2023-08-12T04:07:36;9.95;;;6.25;;
28311;SDS011;15572;48.810;9.148;2023-08-12T04:12:33;6.97;;;6.28;;
28311;SDS011;15572;48.810;9.148;2023-08-12T04:17:31;9.35;;;6.65;;
28311;SDS011;15572;48.810;9.148;2023-08-12T04:22:28;6.82;;;6.13;;
28311;SDS011;15572;48.810;9.148;2023-08-12T04:27:24;7.30;;;6.60;;
28311;SDS011;15572;48.810;9.148;2023-08-12T04:32:21;8.35;;;6.72;;
28311;SDS011;15572;48.810;9.148;2023-08-12T04:37:18;9.18;;;6.35;;
28311;SDS011;15572;48.810;9.148;2023-08-12T04:42:15;9.32;;;6.95;;
28311;SDS011;15572;48.810;9.148;2023-08-12T04:47:12;8.15;;;6.60;;
28311;SDS011;15572;48.810;9.148;2023-08-12T04:52:08;8.70;;;6.53;;
28311;SDS011;15572;48.810;9.148;2023-08-12T04:57:06;8.07;;;6.78;;
28311;SDS011;15572;48.810;9.148;2023-08-12T05:02:03;8.10;;;6.53;;
28311;SDS011;15572;48.810;9.148;2023-08-12T05:06:59;9.23;;;7.32;;
28311;SDS011;15572;48.810;9.148;2023-08-12T05:11:56;9.60;;;7.65;;
28311;SDS011;15572;48.810;9.148;2023-08-12T05:16:54;9.27;;;7.55;;
28311;SDS011;15572;48.810;9.148;2023-08-12T05:21:50;10.05;;;7.50;;
28311;SDS011;15572;48.810;9.148;2023-08-12T05:26:47;9.77;;;7.47;;
28311;SDS011;15572;48.810;9.148;2023-08-12T05:31:43;10.40;;;7.40;;
28311;SDS011;15572;48.810;9.148;2023-08-12T05:36:41;12.32;;;8.20;;
28311;SDS011;15572;48.810;9.148;2023-08-12T05:41:38;12.52;;;8.20;;
28311;SDS011;15572;48.810;9.148;2023-08-12T05:46:34;12.85;;;9.13;;
28311;SDS011;15572;48.810;9.148;2023-08-12T05:51:31;10.50;;;8.20;;
28311;SDS011;15572;48.810;9.148;2023-08-12T05:56:28;9.40;;;7.65;;
28311;SDS011;15572;48.810;9.148;2023-08-12T06:01:25;8.98;;;8.00;;
28311;SDS011;15572;48.810;9.148;2023-08-12T06:06:21;8.15;;;7.22;;
28311;SDS011;15572;48.810;9.148;2023-08-12T06:11:18;7.75;;;6.85;;
28311;SDS011;15572;48.810;9.148;2023-08-12T06:16:16;12.80;;;7.43;;
28311;SDS011;15572;48.810;9.148;2023-08-12T06:21:12;10.10;;;7.40;;
28311;SDS011;15572;48.810;9.148;2023-08-12T06:26:09;9.25;;;7.22;;
28311;SDS011;15572;48.810;9.148;2023-08-12T06:31:05;9.88;;;7.28;;
28311;SDS011;15572;48.810;9.148;2023-08-12T06:36:03;9.15;;;7.43;;
28311;SDS011;15572;48.810;9.148;2023-08-12T06:41:00;8.05;;;7.18;;
28311;SDS011;15572;48.810;9.148;2023-08-12T06:45:57;8.35;;;7.13;;
28311;SDS011;15572;48.810;9.148;2023-08-12T06:50:53;9.05;;;6.68;;
28311;SDS011;15572;48.810;9.148;2023-08-12T06:55:52;7.38;;;5.88;;
28311;SDS011;15572;48.810;9.148;2023-08-12T07:00:49;8.15;;;6.40;;
28311;SDS011;15572;48.810;9.148;2023-08-12T07:05:47;7.05;;;6.00;;
28311;SDS011;15572;48.810;9.148;2023-08-12T07:10:43;7.85;;;6.28;;
28311;SDS011;15572;48.810;9.148;2023-08-12T07:15:42;8.50;;;6.25;;
28311;SDS011;15572;48.810;9.148;2023-08-12T07:20:38;9.23;;;6.47;;
28311;SDS011;15572;48.810;9.148;2023-08-12T07:25:35;7.15;;;5.88;;
28311;SDS011;15572;48.810;9.148;2023-08-12T07:30:33;8.15;;;5.85;;
28311;SDS011;15572;48.810;9.148;2023-08-12T07:35:31;7.45;;;5.68;;
28311;SDS011;15572;48.810;9.148;2023-08-12T07:40:28;6.97;;;5.78;;
28311;SDS011;15572;48.810;9.148;2023-08-12T07:45:25;10.63;;;6.32;;
28311;SDS011;15572;48.810;9.148;2023-08-12T07:50:22;10.45;;;6.00;;
28311;SDS011;15572;48.810;9.148;2023-08-12T07:55:20;6.93;;;5.63;;
28311;SDS011;15572;48.810;9.148;2023-08-12T08:00:16;6.70;;;5.72;;
28311;SDS011;15572;48.810;9.148;2023-08-12T08:05:13;7.80;;;5.25;;
28311;SDS011;15572;48.810;9.148;2023-08-12T08:10:10;7.32;;;5.78;;
28311;SDS011;15572;48.810;9.148;2023-08-12T08:15:08;8.55;;;5.80;;
28311;SDS011;15572;48.810;9.148;2023-08-12T08:20:05;6.78;;;5.68;;
28311;SDS011;15572;48.810;9.148;2023-08-12T08:25:03;6.32;;;5.60;;
28311;SDS011;15572;48.810;9.148;2023-08-12T08:30:00;6.25;;;5.32;;
28311;SDS011;15572;48.810;9.148;2023-08-12T08:34:57;10.40;;;5.40;;
28311;SDS011;15572;48.810;9.148;2023-08-12T08:39:54;6.00;;;5.35;;
28311;SDS011;15572;48.810;9.148;2023-08-12T08:44:52;6.75;;;5.80;;
28311;SDS011;15572;48.810;9.148;2023-08-12T08:49:49;6.80;;;5.57;;
28311;SDS011;15572;48.810;9.148;2023-08-12T08:54:47;8.60;;;5.32;;
28311;SDS011;15572;48.810;9.148;2023-08-12T08:59:44;7.65;;;5.68;;
28311;SDS011;15572;48.810;9.148;2023-08-12T09:04:41;7.32;;;5.60;;
28311;SDS011;15572;48.810;9.148;2023-08-12T09:09:38;7.53;;;5.72;;
28311;SDS011;15572;48.810;9.148;2023-08-12T09:14:39;6.60;;;5.90;;
28311;SDS011;15572;48.810;9.148;2023-08-12T09:19:35;8.85;;;5.70;;
28311;SDS011;15572;48.810;9.148;2023-08-12T09:24:32;7.53;;;5.32;;
28311;SDS011;15572;48.810;9.148;2023-08-12T09:29:29;9.35;;;5.95;;
28311;SDS011;15572;48.810;9.148;2023-08-12T09:34:27;10.85;;;5.55;;
28311;SDS011;15572;48.810;9.148;2023-08-12T09:39:24;7.90;;;5.68;;
28311;SDS011;15572;48.810;9.148;2023-08-12T09:44:20;7.40;;;5.72;;
28311;SDS011;15572;48.810;9.148;2023-08-12T09:49:17;7.75;;;5.68;;
28311;SDS011;15572;48.810;9.148;2023-08-12T09:54:16;10.98;;;5.35;;
28311;SDS011;15572;48.810;9.148;2023-08-12T09:59:13;4.88;;;3.97;;
28311;SDS011;15572;48.810;9.148;2023-08-12T10:04:14;9.20;;;4.75;;
28311;SDS011;15572;48.810;9.148;2023-08-12T10:09:16;5.90;;;3.30;;
28311;SDS011;15572;48.810;9.148;2023-08-12T10:14:13;5.57;;;3.35;;
28311;SDS011;15572;48.810;9.148;2023-08-12T10:19:11;5.38;;;3.88;;
28311;SDS011;15572;48.810;9.148;2023-08-12T10:24:08;7.32;;;4.28;;
28311;SDS011;15572;48.810;9.148;2023-08-12T10:29:06;5.20;;;4.10;;
28311;SDS011;15572;48.810;9.148;2023-08-12T10:34:02;6.57;;;3.92;;
28311;SDS011;15572;48.810;9.148;2023-08-12T10:39:00;4.50;;;3.33;;
28311;SDS011;15572;48.810;9.148;2023-08-12T10:43:58;6.18;;;3.60;;
28311;SDS011;15572;48.810;9.148;2023-08-12T10:48:58;5.25;;;3.60;;
28311;SDS011;15572;48.810;9.148;2023-08-12T10:54:06;4.15;;;3.33;;
28311;SDS011;15572;48.810;9.148;2023-08-12T10:59:09;3.40;;;3.10;;
28311;SDS011;15572;48.810;9.148;2023-08-12T11:04:46;4.45;;;3.50;;
28311;SDS011;15572;48.810;9.148;2023-08-12T11:09:45;3.53;;;3.20;;
28311;SDS011;15572;48.810;9.148;2023-08-12T11:14:48;4.15;;;3.08;;
28311;SDS011;15572;48.810;9.148;2023-08-12T11:19:46;5.10;;;3.10;;
28311;SDS011;15572;48.810;9.148;2023-08-12T11:24:44;5.47;;;3.20;;
28311;SDS011;15572;48.810;9.148;2023-08-12T11:29:40;3.08;;;2.70;;
28311;SDS011;15572;48.810;9.148;2023-08-12T11:34:37;4.57;;;3.10;;
28311;SDS011;15572;48.810;9.148;2023-08-12T11:39:35;3.75;;;3.08;;
28311;SDS011;15572;48.810;9.148;2023-08-12T11:44:31;6.43;;;3.28;;
28311;SDS011;15572;48.810;9.148;2023-08-12T11:49:28;5.07;;;2.95;;
28311;SDS011;15572;48.810;9.148;2023-08-12T11:54:24;5.68;;;3.25;;
28311;SDS011;15572;48.810;9.148;2023-08-12T11:59:23;5.82;;;3.95;;
28311;SDS011;15572;48.810;9.148;2023-08-12T12:04:21;7.22;;;4.22;;
28311;SDS011;15572;48.810;9.148;2023-08-12T12:09:18;4.82;;;3.20;;
28311;SDS011;15572;48.810;9.148;2023-08-12T12:14:15;6.32;;;3.95;;
28311;SDS011;15572;48.810;9.148;2023-08-12T12:19:15;5.78;;;2.97;;
28311;SDS011;15572;48.810;9.148;2023-08-12T12:24:13;6.43;;;3.30;;
28311;SDS011;15572;48.810;9.148;2023-08-12T12:29:09;6.45;;;3.70;;
28311;SDS011;15572;48.810;9.148;2023-08-12T12:34:07;7.18;;;4.18;;
28311;SDS011;15572;48.810;9.148;2023-08-12T12:39:06;6.13;;;4.95;;
28311;SDS011;15572;48.810;9.148;2023-08-12T12:44:03;8.55;;;5.03;;
28311;SDS011;15572;48.810;9.148;2023-08-12T12:49:00;8.25;;;4.57;;
28311;SDS011;15572;48.810;9.148;2023-08-12T12:53:56;8.60;;;4.65;;
28311;SDS011;15572;48.810;9.148;2023-08-12T12:58:54;7.30;;;4.63;;
28311;SDS011;15572;48.810;9.148;2023-08-12T13:03:51;10.38;;;5.70;;
28311;SDS011;15572;48.810;9.148;2023-08-12T13:08:47;6.78;;;5.30;;
28311;SDS011;15572;48.810;9.148;2023-08-12T13:13:44;10.20;;;5.82;;
28311;SDS011;15572;48.810;9.148;2023-08-12T13:18:42;8.10;;;6.43;;
28311;SDS011;15572;48.810;9.148;2023-08-12T13:23:39;8.98;;;7.00;;
28311;SDS011;15572;48.810;9.148;2023-08-12T13:28:35;9.88;;;8.13;;
28311;SDS011;15572;48.810;9.148;2023-08-12T13:33:32;11.80;;;8.07;;
28311;SDS011;15572;48.810;9.148;2023-08-12T13:38:30;9.40;;;8.27;;
28311;SDS011;15572;48.810;9.148;2023-08-12T13:43:26;9.25;;;7.50;;
28311;SDS011;15572;48.810;9.148;2023-08-12T13:48:23;10.15;;;8.23;;
28311;SDS011;15572;48.810;9.148;2023-08-12T13:53:19;9.45;;;7.43;;
28311;SDS011;15572;48.810;9.148;2023-08-12T13:58:17;9.57;;;6.45;;
28311;SDS011;15572;48.810;9.148;2023-08-12T14:03:13;7.75;;;6.35;;
28311;SDS011;15572;48.810;9.148;2023-08-12T14:08:10;7.78;;;6.15;;
28311;SDS011;15572;48.810;9.148;2023-08-12T14:13:06;8.23;;;5.68;;
28311;SDS011;15572;48.810;9.148;2023-08-12T14:18:04;7.75;;;5.90;;
28311;SDS011;15572;48.810;9.148;2023-08-12T14:23:01;9.13;;;5.90;;
28311;SDS011;15572;48.810;9.148;2023-08-12T14:27:57;6.28;;;5.50;;
28311;SDS011;15572;48.810;9.148;2023-08-12T14:32:53;8.35;;;5.50;;
28311;SDS011;15572;48.810;9.148;2023-08-12T14:37:52;7.50;;;5.65;;
28311;SDS011;15572;48.810;9.148;2023-08-12T14:42:48;8.52;;;5.75;;
28311;SDS011;15572;48.810;9.148;2023-08-12T14:47:45;6.38;;;4.75;;
28311;SDS011;15572;48.810;9.148;2023-08-12T14:52:41;7.57;;;4.63;;
28311;SDS011;15572;48.810;9.148;2023-08-12T14:57:39;7.95;;;3.97;;
28311;SDS011;15572;48.810;9.148;2023-08-12T15:02:35;5.53;;;3.92;;
28311;SDS011;15572;48.810;9.148;2023-08-12T15:07:32;5.75;;;4.13;;
28311;SDS011;15572;48.810;9.148;2023-08-12T15:12:28;5.57;;;3.85;;
28311;SDS011;15572;48.810;9.148;2023-08-12T15:17:26;5.72;;;3.60;;
28311;SDS011;15572;48.810;9.148;2023-08-12T15:22:23;5.43;;;3.50;;
28311;SDS011;15572;48.810;9.148;2023-08-12T15:27:19;4.57;;;3.70;;
28311;SDS011;15572;48.810;9.148;2023-08-12T15:32:16;6.05;;;3.65;;
28311;SDS011;15572;48.810;9.148;2023-08-12T15:37:13;5.63;;;3.53;;
28311;SDS011;15572;48.810;9.148;2023-08-12T15:42:10;7.72;;;4.40;;
28311;SDS011;15572;48.810;9.148;2023-08-12T15:47:06;6.93;;;4.75;;
28311;SDS011;15572;48.810;9.148;2023-08-12T15:52:03;5.90;;;5.03;;
28311;SDS011;15572;48.810;9.148;2023-08-12T15:57:01;6.80;;;5.28;;
28311;SDS011;15572;48.810;9.148;2023-08-12T16:01:58;6.95;;;5.45;;
28311;SDS011;15572;48.810;9.148;2023-08-12T16:06:54;6.28;;;5.13;;
28311;SDS011;15572;48.810;9.148;2023-08-12T16:11:51;9.35;;;5.50;;
28311;SDS011;15572;48.810;9.148;2023-08-12T16:16:50;7.28;;;5.25;;
28311;SDS011;15572;48.810;9.148;2023-08-12T16:21:47;6.70;;;5.93;;
28311;SDS011;15572;48.810;9.148;2023-08-12T16:26:43;8.40;;;6.10;;
28311;SDS011;15572;48.810;9.148;2023-08-12T16:31:40;7.28;;;5.72;;
28311;SDS011;15572;48.810;9.148;2023-08-12T16:36:38;7.10;;;5.88;;
28311;SDS011;15572;48.810;9.148;2023-08-12T16:41:34;7.25;;;5.75;;
28311;SDS011;15572;48.810;9.148;2023-08-12T16:46:31;8.30;;;5.72;;
28311;SDS011;15572;48.810;9.148;2023-08-12T16:51:28;7.22;;;5.00;;
28311;SDS011;15572;48.810;9.148;2023-08-12T16:56:26;6.55;;;4.63;;
28311;SDS011;15572;48.810;9.148;2023-08-12T17:01:22;7.72;;;4.25;;
28311;SDS011;15572;48.810;9.148;2023-08-12T17:06:19;5.47;;;3.72;;
28311;SDS011;15572;48.810;9.148;2023-08-12T17:11:15;4.43;;;3.38;;
28311;SDS011;15572;48.810;9.148;2023-08-12T17:16:13;6.30;;;3.78;;
28311;SDS011;15572;48.810;9.148;2023-08-12T17:21:10;3.20;;;2.90;;
28311;SDS011;15572;48.810;9.148;2023-08-12T17:26:06;5.35;;;3.10;;
28311;SDS011;15572;48.810;9.148;2023-08-12T17:31:03;3.78;;;2.60;;
28311;SDS011;15572;48.810;9.148;2023-08-12T17:36:02;3.85;;;3.15;;
28311;SDS011;15572;48.810;9.148;2023-08-12T17:40:59;3.75;;;3.15;;
28311;SDS011;15572;48.810;9.148;2023-08-12T17:45:57;3.90;;;3.08;;
28311;SDS011;15572;48.810;9.148;2023-08-12T17:50:53;4.13;;;3.13;;
28311;SDS011;15572;48.810;9.148;2023-08-12T17:55:51;4.43;;;3.30;;
28311;SDS011;15572;48.810;9.148;2023-08-12T18:00:48;3.90;;;3.17;;
28311;SDS011;15572;48.810;9.148;2023-08-12T18:05:44;4.72;;;3.00;;
28311;SDS011;15572;48.810;9.148;2023-08-12T18:10:41;4.10;;;3.10;;
28311;SDS011;15572;48.810;9.148;2023-08-12T18:15:38;4.22;;;3.30;;
28311;SDS011;15572;48.810;9.148;2023-08-12T18:20:35;4.10;;;3.30;;
28311;SDS011;15572;48.810;9.148;2023-08-12T18:25:31;4.05;;;3.40;;
28311;SDS011;15572;48.810;9.148;2023-08-12T18:30:28;5.22;;;3.70;;
28311;SDS011;15572;48.810;9.148;2023-08-12T18:35:25;6.03;;;3.60;;
28311;SDS011;15572;48.810;9.148;2023-08-12T18:40:22;5.10;;;3.67;;
28311;SDS011;15572;48.810;9.148;2023-08-12T18:45:18;5.78;;;4.70;;
28311;SDS011;15572;48.810;9.148;2023-08-12T18:50:15;6.90;;;4.95;;
28311;SDS011;15572;48.810;9.148;2023-08-12T18:55:13;8.95;;;7.68;;
28311;SDS011;15572;48.810;9.148;2023-08-12T19:00:10;9.43;;;6.63;;
28311;SDS011;15572;48.810;9.148;2023-08-12T19:05:09;6.43;;;5.45;;
28311;SDS011;15572;48.810;9.148;2023-08-12T19:10:07;8.95;;;6.50;;
28311;SDS011;15572;48.810;9.148;2023-08-12T19:15:06;8.48;;;7.20;;
28311;SDS011;15572;48.810;9.148;2023-08-12T19:20:03;5.38;;;4.50;;
28311;SDS011;15572;48.810;9.148;2023-08-12T19:25:00;4.45;;;3.80;;
28311;SDS011;15572;48.810;9.148;2023-08-12T19:29:57;4.45;;;3.50;;
28311;SDS011;15572;48.810;9.148;2023-08-12T19:34:55;6.38;;;4.57;;
28311;SDS011;15572;48.810;9.148;2023-08-12T19:39:52;5.93;;;4.68;;
28311;SDS011;15572;48.810;9.148;2023-08-12T19:44:48;5.88;;;4.00;;
28311;SDS011;15572;48.810;9.148;2023-08-12T19:49:45;5.40;;;4.70;;
28311;SDS011;15572;48.810;9.148;2023-08-12T19:54:42;7.57;;;5.00;;
28311;SDS011;15572;48.810;9.148;2023-08-12T19:59:39;7.38;;;5.20;;
28311;SDS011;15572;48.810;9.148;2023-08-12T20:04:35;6.38;;;5.10;;
28311;SDS011;15572;48.810;9.148;2023-08-12T20:09:32;6.05;;;4.78;;
28311;SDS011;15572;48.810;9.148;2023-08-12T20:14:30;8.43;;;5.47;;
28311;SDS011;15572;48.810;9.148;2023-08-12T20:19:26;5.82;;;5.20;;
28311;SDS011;15572;48.810;9.148;2023-08-12T20:24:22;6.85;;;5.20;;
28311;SDS011;15572;48.810;9.148;2023-08-12T20:29:19;7.40;;;5.40;;
28311;SDS011;15572;48.810;9.148;2023-08-12T20:34:17;6.93;;;5.20;;
28311;SDS011;15572;48.810;9.148;2023-08-12T20:39:13;8.60;;;6.00;;
28311;SDS011;15572;48.810;9.148;2023-08-12T20:44:10;6.75;;;5.43;;
28311;SDS011;15572;48.810;9.148;2023-08-12T20:49:06;6.55;;;5.47;;
28311;SDS011;15572;48.810;9.148;2023-08-12T20:54:04;7.13;;;5.68;;
28311;SDS011;15572;48.810;9.148;2023-08-12T20:59:01;8.27;;;5.70;;
28311;SDS011;15572;48.810;9.148;2023-08-12T21:03:57;7.95;;;6.00;;
28311;SDS011;15572;48.810;9.148;2023-08-12T21:08:53;9.10;;;6.28;;
28311;SDS011;15572;48.810;9.148;2023-08-12T21:13:51;8.75;;;6.45;;
28311;SDS011;15572;48.810;9.148;2023-08-12T21:18:48;6.88;;;6.07;;
28311;SDS011;15572;48.810;9.148;2023-08-12T21:23:44;7.65;;;6.00;;
28311;SDS011;15572;48.810;9.148;2023-08-12T21:28:41;7.68;;;6.10;;
28311;SDS011;15572;48.810;9.148;2023-08-12T21:33:39;8.40;;;6.45;;
28311;SDS011;15572;48.810;9.148;2023-08-12T21:38:35;6.53;;;5.85;;
28311;SDS011;15572;48.810;9.148;2023-08-12T21:43:32;8.25;;;6.50;;
28311;SDS011;15572;48.810;9.148;2023-08-12T21:48:28;10.10;;;6.78;;
28311;SDS011;15572;48.810;9.148;2023-08-12T21:53:26;7.30;;;6.20;;
28311;SDS011;15572;48.810;9.148;2023-08-12T21:58:22;9.30;;;6.72;;
28311;SDS011;15572;48.810;9.148;2023-08-12T22:03:19;9.75;;;6.40;;
28311;SDS011;15572;48.810;9.148;2023-08-12T22:08:15;7.25;;;6.47;;
28311;SDS011;15572;48.810;9.148;2023-08-12T22:13:13;8.07;;;7.18;;
28311;SDS011;15572;48.810;9.148;2023-08-12T22:18:10;8.00;;;7.20;;
28311;SDS011;15572;48.810;9.148;2023-08-12T22:23:06;19.92;;;7.05;;
28311;SDS011;15572;48.810;9.148;2023-08-12T22:28:03;11.18;;;6.93;;
28311;SDS011;15572;48.810;9.148;2023-08-12T22:33:01;8.90;;;6.53;;
28311;SDS011;15572;48.810;9.148;2023-08-12T22:37:58;11.73;;;8.10;;
28311;SDS011;15572;48.810;9.148;2023-08-12T22:42:54;9.20;;;7.82;;
28311;SDS011;15572;48.810;9.148;2023-08-12T22:47:51;10.43;;;7.07;;
28311;SDS011;15572;48.810;9.148;2023-08-12T22:52:49;11.52;;;7.72;;
28311;SDS011;15572;48.810;9.148;2023-08-12T22:57:45;11.48;;;7.30;;
28311;SDS011;15572;48.810;9.148;2023-08-12T23:02:42;10.98;;;7.88;;
28311;SDS011;15572;48.810;9.148;2023-08-12T23:07:38;9.90;;;7.35;;
28311;SDS011;15572;48.810;9.148;2023-08-12T23:12:36;10.40;;;7.60;;
28311;SDS011;15572;48.810;9.148;2023-08-12T23:17:33;9.60;;;7.78;;
28311;SDS011;15572;48.810;9.148;2023-08-12T23:22:30;8.63;;;7.60;;
28311;SDS011;15572;48.810;9.148;2023-08-12T23:27:26;10.93;;;7.30;;
28311;SDS011;15572;48.810;9.148;2023-08-12T23:32:24;9.88;;;7.70;;
28311;SDS011;15572;48.810;9.148;2023-08-12T23:37:21;8.93;;;7.20;;
28311;SDS011;15572;48.810;9.148;2023-08-12T23:42:17;10.48;;;8.20;;
28311;SDS011;15572;48.810;9.148;2023-08-12T23:47:14;12.73;;;8.05;;
28311;SDS011;15572;48.810;9.148;2023-08-12T23:52:11;12.57;;;8.20;;
28311;SDS011;15572;48.810;9.148;2023-08-12T23:57:08;10.43;;;7.88;;
